Wishon, California
Current Conditions -  °F | °C
As of 12:01 PM on Friday 21 Nov 2014 (Local Time) from KFAT Reporting Station
Overcast Overcast  
Wind Chill: 12°   Ceiling: 1000
Heat Index: 12°   Visibility: 7mi
Dew Point:   Wind: 6mph
Humidity: 83%   Direction: 300°WNW
Pressure: 30.12"   Gusts: NA
Location:  37.27°N, 119.54°W
Report Text: KFAT 212001Z 30005KT 7SM OVC010 12/09 A3012 RMK AO2 T01170089
Loading
Personal Weather Stations






























Interactive Weather Map New forecast layout! Learn more

10-Day Weather Forecast

Advertisements
Track Severe Weather on mobile